createdAt,value
2019-03-15T00:01:26.390Z,174.82
2019-03-15T00:03:59.226Z,176.35
2019-03-15T00:06:31.561Z,183.32
2019-03-15T00:09:05.264Z,194.32
2019-03-15T00:11:37.740Z,214.70
2019-03-15T00:14:10.739Z,215.92
2019-03-15T00:16:43.587Z,219.07
2019-03-15T00:19:16.161Z,212.17
2019-03-15T00:21:48.552Z,210.85
2019-03-15T00:24:20.915Z,207.60
2019-03-15T00:26:53.410Z,210.05
2019-03-15T00:29:26.395Z,205.32
2019-03-15T00:31:59.107Z,202.18
2019-03-15T00:34:31.758Z,205.65
2019-03-15T00:37:04.358Z,200.97
2019-03-15T00:39:36.836Z,200.93
2019-03-15T00:42:09.302Z,191.07
2019-03-15T00:44:41.828Z,188.90
2019-03-15T00:47:14.148Z,176.05
2019-03-15T00:50:07.469Z,185.67
2019-03-15T00:52:40.042Z,184.40
2019-03-15T00:55:12.820Z,176.05
2019-03-15T00:57:45.250Z,169.02
2019-03-15T01:00:18.913Z,139.62
2019-03-15T01:02:54.168Z,139.32
2019-03-15T01:05:26.791Z,144.43
2019-03-15T01:07:59.770Z,141.22
2019-03-15T01:10:32.291Z,141.37
2019-03-15T01:13:04.715Z,143.35
2019-03-15T01:15:37.411Z,143.20
2019-03-15T01:18:09.902Z,133.37
2019-03-15T01:20:42.442Z,131.55
2019-03-15T01:23:15.151Z,133.70
2019-03-15T01:25:47.838Z,132.65
2019-03-15T01:28:20.263Z,132.20
2019-03-15T01:30:52.965Z,126.15
2019-03-15T01:33:26.648Z,125.82
2019-03-15T01:35:59.290Z,120.55
2019-03-15T01:38:31.639Z,124.47
2019-03-15T01:41:04.484Z,121.57
2019-03-15T01:43:36.819Z,115.05
2019-03-15T01:46:09.602Z,113.47
2019-03-15T01:48:42.601Z,110.83
2019-03-15T01:51:15.648Z,108.72
2019-03-15T01:53:48.415Z,108.45
2019-03-15T01:56:21.127Z,107.78
2019-03-15T01:58:53.625Z,107.35
2019-03-15T02:01:26.325Z,103.22
2019-03-15T02:03:59.431Z,99.85
2019-03-15T02:06:33.401Z,103.22
2019-03-15T02:09:09.137Z,98.62
2019-03-15T02:11:40.519Z,101.78
2019-03-15T02:14:13.018Z,98.10
2019-03-15T02:16:45.431Z,91.95
2019-03-15T02:19:17.872Z,93.60
2019-03-15T02:21:50.177Z,93.90
2019-03-15T02:24:22.861Z,91.12
2019-03-15T02:26:55.261Z,92.97
2019-03-15T02:29:28.743Z,87.80
2019-03-15T02:32:01.186Z,90.25
2019-03-15T02:34:34.229Z,89.20
2019-03-15T02:37:07.317Z,86.67
2019-03-15T02:39:39.874Z,82.22
2019-03-15T02:42:13.115Z,85.17
2019-03-15T02:44:45.555Z,80.17
2019-03-15T02:47:19.572Z,77.60
2019-03-15T02:49:53.191Z,77.25
2019-03-15T02:52:25.855Z,77.05
2019-03-15T02:54:58.531Z,73.67
2019-03-15T02:57:30.859Z,74.45
2019-03-15T03:00:03.125Z,73.20
2019-03-15T03:02:36.994Z,73.07
2019-03-15T03:05:11.344Z,78.02
2019-03-15T03:07:43.585Z,72.50
2019-03-15T03:10:16.249Z,73.70
2019-03-15T03:12:48.823Z,71.10
2019-03-15T03:15:21.355Z,73.15
2019-03-15T03:17:53.848Z,73.87
2019-03-15T03:20:26.646Z,75.08
2019-03-15T03:22:58.827Z,77.00
2019-03-15T03:25:31.735Z,72.78
2019-03-15T03:28:04.342Z,73.42
2019-03-15T03:30:36.885Z,70.42
2019-03-15T03:33:08.967Z,74.30
2019-03-15T03:35:42.760Z,73.12
2019-03-15T03:38:15.653Z,76.05
2019-03-15T03:40:48.190Z,75.60
2019-03-15T03:43:20.513Z,74.65
2019-03-15T03:45:53.060Z,71.77
2019-03-15T03:48:25.528Z,72.35
2019-03-15T03:51:00.007Z,72.00
2019-03-15T03:53:32.338Z,68.70
2019-03-15T03:56:04.757Z,73.25
2019-03-15T03:58:37.120Z,71.02
2019-03-15T04:09:31.740Z,69.35
2019-03-15T04:12:05.486Z,70.22
2019-03-15T04:14:37.908Z,69.58
2019-03-15T04:17:10.393Z,69.25
2019-03-15T04:19:42.705Z,67.30
2019-03-15T04:22:15.138Z,71.40
2019-03-15T04:24:47.721Z,70.70
2019-03-15T04:27:20.031Z,70.57
2019-03-15T04:29:52.611Z,69.10
2019-03-15T04:32:25.604Z,64.92
2019-03-15T04:34:58.054Z,68.25
2019-03-15T04:37:30.975Z,71.15
2019-03-15T04:40:03.505Z,69.70
2019-03-15T04:42:36.103Z,69.40
2019-03-15T04:45:10.560Z,70.25
2019-03-15T04:47:43.774Z,72.47
2019-03-15T04:50:16.634Z,69.10
2019-03-15T04:52:49.395Z,69.60
2019-03-15T04:55:21.772Z,68.33
2019-03-15T04:57:54.135Z,69.27
2019-03-15T05:00:26.632Z,67.82
2019-03-15T05:02:59.201Z,66.75
2019-03-15T05:05:31.811Z,62.93
2019-03-15T05:08:04.383Z,62.25
2019-03-15T05:10:36.667Z,61.92
2019-03-15T05:13:10.103Z,62.58
2019-03-15T05:15:42.292Z,61.80
2019-03-15T05:18:14.631Z,62.55
2019-03-15T05:20:46.714Z,63.00
2019-03-15T05:23:19.623Z,61.33
2019-03-15T05:25:52.030Z,61.23
2019-03-15T05:28:24.734Z,62.65
2019-03-15T05:30:57.265Z,64.47
2019-03-15T05:33:29.999Z,60.17
2019-03-15T05:36:02.571Z,61.92
2019-03-15T05:38:35.557Z,63.30
2019-03-15T05:41:08.210Z,65.25
2019-03-15T05:43:41.706Z,65.95
2019-03-15T05:46:14.470Z,63.80
2019-03-15T05:48:46.879Z,65.03
2019-03-15T05:51:19.272Z,65.12
2019-03-15T05:53:51.858Z,66.53
2019-03-15T05:56:24.443Z,65.22
2019-03-15T05:58:56.818Z,66.10
2019-03-15T06:01:29.195Z,67.58
2019-03-15T06:04:01.820Z,64.80
2019-03-15T06:06:34.200Z,61.77
2019-03-15T06:09:07.956Z,61.63
2019-03-15T06:11:40.378Z,63.68
2019-03-15T06:14:12.955Z,59.98
2019-03-15T06:16:45.686Z,52.25
2019-03-15T06:19:18.110Z,53.05
2019-03-15T06:21:50.468Z,54.75
2019-03-15T06:24:23.058Z,54.88
2019-03-15T06:26:55.443Z,55.60
2019-03-15T06:29:28.766Z,53.55
2019-03-15T06:32:01.143Z,52.20
2019-03-15T06:34:33.976Z,50.95
2019-03-15T06:37:06.734Z,51.48
2019-03-15T06:39:39.082Z,52.73
2019-03-15T06:42:11.477Z,52.70
2019-03-15T06:44:57.028Z,52.90
2019-03-15T06:47:17.873Z,52.15
2019-03-15T06:49:50.577Z,51.40
2019-03-15T06:52:23.215Z,54.50
2019-03-15T06:54:56.200Z,53.87
2019-03-15T06:57:28.917Z,57.17
2019-03-15T07:00:01.502Z,52.73
2019-03-15T07:02:34.147Z,50.70
2019-03-15T07:05:11.683Z,50.73
2019-03-15T07:07:42.400Z,49.03
2019-03-15T07:10:14.922Z,52.55
2019-03-15T07:12:47.659Z,53.30
2019-03-15T07:15:20.181Z,51.35
2019-03-15T07:17:52.832Z,51.37
2019-03-15T07:20:25.764Z,51.95
2019-03-15T07:22:58.412Z,51.80
2019-03-15T07:25:30.930Z,52.65
2019-03-15T07:28:03.784Z,54.18
2019-03-15T07:30:36.018Z,54.60
2019-03-15T07:33:08.756Z,54.83
2019-03-15T07:35:41.526Z,55.78
2019-03-15T07:38:14.212Z,53.98
2019-03-15T07:40:46.822Z,58.08
2019-03-15T07:43:20.166Z,56.20
2019-03-15T07:45:52.815Z,56.33
2019-03-15T07:48:26.886Z,58.92
2019-03-15T07:51:00.619Z,56.33
2019-03-15T07:53:35.402Z,58.60
2019-03-15T07:56:07.195Z,59.65
2019-03-15T07:58:39.670Z,57.98
2019-03-15T08:01:12.451Z,58.70
2019-03-15T08:03:45.007Z,58.52
2019-03-15T08:06:17.498Z,60.48
2019-03-15T08:08:50.561Z,60.10
2019-03-15T08:11:23.225Z,59.50
2019-03-15T08:13:55.987Z,59.88
2019-03-15T08:16:28.898Z,60.92
2019-03-15T08:19:04.846Z,58.85
2019-03-15T08:21:36.511Z,57.83
2019-03-15T08:24:09.309Z,57.40
2019-03-15T08:26:42.192Z,57.20
2019-03-15T08:29:14.843Z,57.80
2019-03-15T08:31:47.381Z,58.87
2019-03-15T08:34:19.947Z,56.15
2019-03-15T08:36:52.516Z,55.60
2019-03-15T08:39:24.910Z,57.58
2019-03-15T08:41:57.444Z,57.38
2019-03-15T08:44:30.008Z,54.63
2019-03-15T08:47:03.051Z,54.67
2019-03-15T08:49:35.741Z,57.00
2019-03-15T08:52:08.201Z,54.03
2019-03-15T08:54:40.748Z,53.73
2019-03-15T08:57:13.577Z,52.43
2019-03-15T08:59:55.560Z,53.42
2019-03-15T09:02:20.263Z,54.90
2019-03-15T09:04:54.012Z,53.48
2019-03-15T09:07:26.744Z,53.52
2019-03-15T09:09:59.460Z,53.20
2019-03-15T09:12:31.993Z,53.95
2019-03-15T09:15:04.543Z,52.60
2019-03-15T09:17:37.610Z,52.05
2019-03-15T09:20:11.810Z,53.15
2019-03-15T09:22:44.325Z,52.65
2019-03-15T09:25:20.215Z,49.25
2019-03-15T09:27:52.594Z,50.40
2019-03-15T09:30:25.164Z,50.92
2019-03-15T09:32:58.249Z,51.25
2019-03-15T09:35:30.763Z,50.23
2019-03-15T09:38:03.767Z,52.30
2019-03-15T09:40:36.667Z,52.67
2019-03-15T09:43:09.651Z,51.00
2019-03-15T09:45:42.836Z,48.50
2019-03-15T09:48:15.370Z,49.10
2019-03-15T09:50:51.613Z,48.23
2019-03-15T09:53:22.080Z,46.63
2019-03-15T09:55:55.233Z,46.10
2019-03-15T09:58:28.232Z,47.20
2019-03-15T10:01:01.327Z,48.30
2019-03-15T10:03:34.083Z,47.55
2019-03-15T10:06:14.771Z,47.33
2019-03-15T10:08:41.212Z,46.33
2019-03-15T10:11:15.127Z,46.40
2019-03-15T10:13:47.955Z,46.77
2019-03-15T10:16:20.577Z,45.33
2019-03-15T10:18:53.482Z,44.10
2019-03-15T10:21:26.187Z,44.88
2019-03-15T10:23:58.696Z,43.65
2019-03-15T10:26:31.061Z,46.02
2019-03-15T10:29:14.684Z,46.23
2019-03-15T10:31:37.663Z,48.68
2019-03-15T10:34:10.218Z,47.17
2019-03-15T10:36:42.521Z,46.42
2019-03-15T10:39:14.874Z,45.80
2019-03-15T10:41:47.403Z,88.78
2019-03-15T10:44:20.313Z,52.83
2019-03-15T10:46:52.710Z,47.50
2019-03-15T10:49:25.126Z,46.53
2019-03-15T10:51:57.938Z,45.58
2019-03-15T10:54:31.539Z,46.10
2019-03-15T10:57:05.299Z,45.23
2019-03-15T10:59:37.847Z,44.88
2019-03-15T11:02:10.827Z,48.28
2019-03-15T11:04:42.927Z,44.77
2019-03-15T11:07:25.530Z,47.08
2019-03-15T11:09:57.920Z,46.40
2019-03-15T11:12:30.770Z,44.80
2019-03-15T11:15:03.085Z,46.50
2019-03-15T11:17:35.861Z,44.75
2019-03-15T11:20:13.259Z,45.30
2019-03-15T11:22:45.849Z,45.80
2019-03-15T11:25:18.165Z,46.30
2019-03-15T11:27:50.887Z,45.80
2019-03-15T11:30:23.586Z,46.77
2019-03-15T11:32:55.904Z,45.90
2019-03-15T11:35:28.687Z,46.25
2019-03-15T11:38:01.213Z,46.37
2019-03-15T11:40:33.797Z,47.45
2019-03-15T11:43:06.761Z,49.00
2019-03-15T11:45:39.476Z,49.50
2019-03-15T11:48:12.554Z,49.20
2019-03-15T11:50:45.015Z,49.18
2019-03-15T11:53:18.881Z,47.62
2019-03-15T11:55:51.544Z,46.98
2019-03-15T11:58:24.250Z,48.00
2019-03-15T12:00:56.632Z,45.98
2019-03-15T12:03:29.234Z,47.23
2019-03-15T12:06:01.529Z,47.10
2019-03-15T12:08:34.280Z,49.13
2019-03-15T12:11:06.674Z,48.23
2019-03-15T12:13:39.630Z,49.45
2019-03-15T12:16:12.444Z,48.28
2019-03-15T12:18:44.932Z,51.58
2019-03-15T12:21:17.368Z,49.48
2019-03-15T12:23:49.722Z,50.85
2019-03-15T12:26:22.051Z,51.95
2019-03-15T12:28:55.036Z,51.65
2019-03-15T12:31:27.565Z,53.28
2019-03-15T12:34:00.428Z,51.58
2019-03-15T12:36:32.744Z,52.10
2019-03-15T12:39:07.016Z,49.80
2019-03-15T12:41:39.928Z,50.25
2019-03-15T12:44:12.609Z,51.77
2019-03-15T12:46:44.902Z,49.90
2019-03-15T12:49:17.405Z,49.88
2019-03-15T12:51:49.969Z,52.03
2019-03-15T12:54:22.773Z,48.83
2019-03-15T12:56:55.617Z,49.80
2019-03-15T12:59:28.096Z,50.33
2019-03-15T13:02:00.546Z,52.70
2019-03-15T13:04:32.898Z,50.00
2019-03-15T13:07:05.613Z,53.83
2019-03-15T13:09:37.705Z,52.67
2019-03-15T13:12:10.302Z,51.08
2019-03-15T13:14:42.441Z,51.73
2019-03-15T13:17:15.271Z,53.50
2019-03-15T13:19:55.076Z,53.87
2019-03-15T13:22:22.021Z,53.85
2019-03-15T13:24:54.652Z,55.95
2019-03-15T13:27:27.486Z,55.55
2019-03-15T13:30:00.413Z,56.08
2019-03-15T13:32:34.348Z,54.83
2019-03-15T13:35:07.804Z,57.23
2019-03-15T13:37:42.880Z,54.63
2019-03-15T13:40:16.100Z,55.00
2019-03-15T13:42:48.740Z,55.50
2019-03-15T13:45:21.257Z,54.63
2019-03-15T13:47:53.890Z,55.88
2019-03-15T13:50:26.437Z,55.55
2019-03-15T13:52:58.904Z,55.55
2019-03-15T13:55:34.447Z,54.55
2019-03-15T13:58:19.253Z,54.95
2019-03-15T14:00:51.658Z,56.28
2019-03-15T14:03:24.826Z,54.18
2019-03-15T14:05:57.446Z,56.23
2019-03-15T14:08:29.957Z,54.65
2019-03-15T14:11:03.537Z,57.58
2019-03-15T14:13:35.681Z,57.70
2019-03-15T14:16:08.565Z,58.05
2019-03-15T14:18:41.063Z,58.58
2019-03-15T14:21:13.759Z,57.50
2019-03-15T14:23:47.637Z,56.83
2019-03-15T14:26:20.445Z,56.28
2019-03-15T14:28:52.791Z,56.88
2019-03-15T14:31:25.141Z,54.93
2019-03-15T14:33:57.550Z,55.92
2019-03-15T14:36:29.997Z,57.05
2019-03-15T14:39:02.468Z,58.45
2019-03-15T14:41:34.719Z,57.10
2019-03-15T14:44:26.342Z,55.88
2019-03-15T14:46:58.746Z,55.73
2019-03-15T14:49:31.092Z,57.38
2019-03-15T14:52:03.951Z,57.62
2019-03-15T14:54:37.184Z,54.45
2019-03-15T14:57:21.776Z,55.05
2019-03-15T14:59:54.933Z,55.28
2019-03-15T15:02:27.623Z,56.05
2019-03-15T15:05:00.818Z,55.75
2019-03-15T15:07:33.587Z,57.23
2019-03-15T15:10:08.716Z,55.60
2019-03-15T15:12:40.938Z,56.83
2019-03-15T15:15:15.521Z,57.65
2019-03-15T15:17:48.126Z,57.17
2019-03-15T15:20:20.849Z,57.55
2019-03-15T15:22:53.163Z,58.50
2019-03-15T15:25:25.759Z,59.10
2019-03-15T15:28:04.386Z,60.65
2019-03-15T15:30:31.846Z,59.95
2019-03-15T15:33:04.220Z,62.48
2019-03-15T15:35:37.942Z,63.85
2019-03-15T15:38:29.097Z,179.27
2019-03-15T15:41:01.504Z,64.77
2019-03-15T15:43:34.265Z,65.00
2019-03-15T15:46:06.683Z,67.27
2019-03-15T15:48:40.039Z,67.85
2019-03-15T15:51:13.238Z,69.47
2019-03-15T15:53:45.711Z,70.28
2019-03-15T15:56:18.111Z,69.25
2019-03-15T15:58:50.764Z,66.90
2019-03-15T16:01:23.399Z,68.33
2019-03-15T16:04:03.966Z,68.87
2019-03-15T16:06:36.710Z,71.12
2019-03-15T16:09:10.035Z,183.62
2019-03-15T16:11:42.375Z,68.85
2019-03-15T16:14:15.641Z,69.77
2019-03-15T16:16:47.950Z,67.80
2019-03-15T16:19:21.165Z,72.65
2019-03-15T16:21:53.452Z,71.05
2019-03-15T16:24:25.824Z,71.95
2019-03-15T16:26:58.244Z,71.47
2019-03-15T16:29:31.316Z,71.22
2019-03-15T16:32:03.853Z,74.60
2019-03-15T16:34:36.102Z,67.53
2019-03-15T16:37:08.537Z,65.42
2019-03-15T16:39:40.762Z,66.60
2019-03-15T16:42:13.405Z,66.70
2019-03-15T16:44:45.791Z,65.08
2019-03-15T16:47:18.476Z,63.50
2019-03-15T16:49:51.819Z,62.17
2019-03-15T16:52:25.259Z,62.38
2019-03-15T16:54:58.003Z,64.70
2019-03-15T16:57:30.486Z,62.00
2019-03-15T17:00:02.819Z,62.80
2019-03-15T17:02:35.800Z,63.65
2019-03-15T17:05:10.870Z,62.03
2019-03-15T17:07:43.862Z,59.53
2019-03-15T17:10:17.995Z,61.20
2019-03-15T17:12:51.149Z,62.70
2019-03-15T17:15:26.197Z,63.15
2019-03-15T17:17:58.914Z,61.25
2019-03-15T17:20:34.268Z,73.02
2019-03-15T17:23:07.598Z,64.95
2019-03-15T17:25:39.934Z,61.68
2019-03-15T17:28:12.510Z,62.83
2019-03-15T17:30:45.894Z,63.50
2019-03-15T17:33:18.644Z,63.13
2019-03-15T17:35:51.183Z,62.20
2019-03-15T17:38:23.935Z,62.98
2019-03-15T17:40:56.372Z,61.88
2019-03-15T17:43:28.881Z,62.67
2019-03-15T17:46:01.394Z,63.58
2019-03-15T17:48:35.123Z,60.67
2019-03-15T17:51:07.755Z,62.38
2019-03-15T17:53:40.375Z,64.17
2019-03-15T17:56:13.108Z,62.27
2019-03-15T17:58:45.539Z,62.25
2019-03-15T18:01:18.428Z,62.23
2019-03-15T18:03:50.988Z,60.58
2019-03-15T18:06:23.278Z,60.95
2019-03-15T18:08:55.709Z,60.73
2019-03-15T18:11:28.100Z,64.07
2019-03-15T18:14:00.628Z,62.30
2019-03-15T18:16:33.339Z,61.40
2019-03-15T18:19:05.969Z,62.73
2019-03-15T18:21:38.278Z,59.88
2019-03-15T18:24:10.980Z,59.77
2019-03-15T18:26:43.421Z,61.25
2019-03-15T18:29:25.860Z,58.40
2019-03-15T18:31:49.727Z,61.37
2019-03-15T18:34:22.105Z,59.20
2019-03-15T18:36:54.422Z,60.25
2019-03-15T18:39:27.086Z,59.35
2019-03-15T18:41:59.805Z,57.05
2019-03-15T18:44:32.337Z,60.08
2019-03-15T18:47:04.725Z,59.53
2019-03-15T18:49:37.123Z,59.23
2019-03-15T18:52:09.724Z,60.28
2019-03-15T18:54:42.110Z,62.15
2019-03-15T18:57:14.726Z,60.17
2019-03-15T18:59:47.411Z,62.95
2019-03-15T19:02:19.984Z,60.50
2019-03-15T19:04:52.618Z,61.70
2019-03-15T19:07:24.957Z,61.98
2019-03-15T19:09:57.559Z,60.95
2019-03-15T19:12:30.014Z,59.80
2019-03-15T19:15:02.378Z,61.90
2019-03-15T19:17:35.039Z,59.98
2019-03-15T19:20:10.157Z,58.83
2019-03-15T19:22:44.495Z,59.40
2019-03-15T19:25:17.844Z,61.00
2019-03-15T19:27:50.459Z,59.38
2019-03-15T19:30:23.537Z,60.08
2019-03-15T19:32:56.327Z,59.23
2019-03-15T19:35:28.647Z,59.15
2019-03-15T19:38:01.178Z,58.98
2019-03-15T19:40:34.993Z,58.95
2019-03-15T19:43:07.566Z,56.08
2019-03-15T19:45:41.455Z,56.83
2019-03-15T19:48:13.999Z,54.83
2019-03-15T19:50:46.895Z,52.35
2019-03-15T19:53:19.426Z,53.50
2019-03-15T19:55:54.944Z,52.80
2019-03-15T19:58:27.606Z,51.90
2019-03-15T20:01:00.234Z,50.75
2019-03-15T20:03:43.557Z,50.12
2019-03-15T20:06:07.667Z,50.90
2019-03-15T20:08:40.678Z,48.13
2019-03-15T20:11:13.445Z,47.98
2019-03-15T20:13:46.182Z,48.20
2019-03-15T20:16:18.705Z,46.90
2019-03-15T20:18:51.167Z,46.33
2019-03-15T20:21:23.896Z,46.60
2019-03-15T20:23:56.524Z,46.53
2019-03-15T20:26:28.913Z,46.33
2019-03-15T20:29:01.833Z,45.70
2019-03-15T20:31:34.218Z,46.75
2019-03-15T20:34:07.149Z,45.08
2019-03-15T20:36:39.646Z,45.88
2019-03-15T20:39:12.250Z,44.50
2019-03-15T20:41:44.743Z,44.70
2019-03-15T20:44:27.898Z,46.68
2019-03-15T20:46:51.183Z,44.42
2019-03-15T20:49:23.648Z,45.00
2019-03-15T20:51:56.706Z,44.53
2019-03-15T20:54:29.071Z,46.70
2019-03-15T20:57:01.480Z,44.83
2019-03-15T20:59:33.989Z,45.35
2019-03-15T21:02:06.608Z,45.73
2019-03-15T21:04:39.072Z,47.73
2019-03-15T21:07:11.389Z,45.03
2019-03-15T21:09:43.872Z,45.60
2019-03-15T21:12:16.284Z,46.77
2019-03-15T21:14:49.251Z,47.38
2019-03-15T21:17:21.705Z,47.38
2019-03-15T21:19:54.258Z,46.77
2019-03-15T21:22:27.070Z,45.35
2019-03-15T21:24:59.895Z,48.20
2019-03-15T21:27:32.501Z,49.65
2019-03-15T21:30:06.178Z,51.90
2019-03-15T21:32:39.045Z,50.98
2019-03-15T21:35:13.056Z,50.08
2019-03-15T21:37:45.803Z,52.25
2019-03-15T21:40:20.442Z,49.53
2019-03-15T21:42:52.899Z,49.95
2019-03-15T21:45:25.597Z,49.77
2019-03-15T21:47:57.944Z,50.10
2019-03-15T21:50:31.840Z,49.77
2019-03-15T21:53:04.465Z,49.60
2019-03-15T21:55:37.424Z,48.50
2019-03-15T21:58:09.920Z,48.65
2019-03-15T22:00:42.730Z,48.08
2019-03-15T22:03:15.343Z,48.20
2019-03-15T22:05:48.140Z,46.28
2019-03-15T22:08:20.628Z,48.38
2019-03-15T22:10:53.255Z,48.52
2019-03-15T22:13:25.864Z,47.40
2019-03-15T22:15:58.409Z,47.48
2019-03-15T22:18:30.732Z,46.98
2019-03-15T22:21:03.490Z,47.90
2019-03-15T22:23:35.779Z,47.83
2019-03-15T22:26:08.528Z,46.95
2019-03-15T22:28:40.856Z,48.55
2019-03-15T22:31:16.790Z,46.40
2019-03-15T22:33:47.929Z,48.25
2019-03-15T22:36:20.572Z,46.95
2019-03-15T22:38:53.344Z,45.12
2019-03-15T22:41:26.028Z,46.13
2019-03-15T22:43:58.405Z,44.00
2019-03-15T22:46:30.792Z,43.90
2019-03-15T22:49:03.181Z,43.23
2019-03-15T22:51:36.184Z,41.53
2019-03-15T22:54:08.752Z,40.45
2019-03-15T22:56:41.722Z,40.23
2019-03-15T22:59:14.303Z,40.33
2019-03-15T23:01:47.166Z,40.20
2019-03-15T23:04:19.609Z,38.83
2019-03-15T23:06:52.131Z,40.15
2019-03-15T23:09:24.704Z,40.20
2019-03-15T23:11:57.635Z,37.25
2019-03-15T23:14:31.257Z,38.13
2019-03-15T23:17:03.910Z,40.33
2019-03-15T23:19:36.317Z,39.35
2019-03-15T23:22:09.121Z,39.42
2019-03-15T23:24:41.650Z,39.33
2019-03-15T23:27:14.438Z,40.65
2019-03-15T23:29:47.542Z,40.78
2019-03-15T23:32:20.434Z,42.35
2019-03-15T23:34:53.271Z,42.00
2019-03-15T23:37:26.049Z,40.58
2019-03-15T23:39:58.491Z,40.25
2019-03-15T23:42:30.970Z,39.18
2019-03-15T23:45:03.416Z,37.88
2019-03-15T23:47:35.967Z,39.05
2019-03-15T23:50:10.829Z,38.67
2019-03-15T23:52:43.284Z,39.25
2019-03-15T23:55:15.966Z,38.88
2019-03-15T23:57:48.674Z,39.13
